Accueil
METAR-TAF:

METAR-TAF

Aéroports :

Aéroport de Djanet - Tiska

Djanet, Algérie

latitude: 24-33N, longitude: 009-28E, altitude: 1054 m

Observation

Le bulletin a été fait il y a 1 heure et 18 minutes, à 00:00 UTC
Vent 11 kt de est
Température 29°C
Humidité 13%
Pression 1017 hPa
Visibilité 10 km ou plus
pas de nuages en-dessous de 1500 mètres et pas de cumulonimbus.

METAR: DAAJ 220000Z 10011KT CAVOK 29/M02 Q1017

Heure: 02:18 (01:18 UTC)

Prévision

Le bulletin a été fait il y a 2 heures et 18 minutes, à 23:00 UTC
Prévision valable du 22 à 00 UTC au 22 à 24 UTC
Vent 10 kt de est
Visibilité 10 km ou plus
pas de nuages en-dessous de 1500 mètres et pas de cumulonimbus.
Evoluant progressivement
du 22 à 15 UTC au 22 à 18 UTC
Vent 12 kt de nord-est

TAF: DAAJ 212300Z 2200/2224 10010KT CAVOK BECMG 2215/2218 04012KT

Observations et prévisions météorologiques de plus de 4000 aéroports (messages METAR et TAF).

Les stations disponibles sont représentées par des disques jaunes et rouges sur la carte.

Passer la souris dessus pour voir le nom de la station.

Cliquer dessus pour voir les observations et prévisions météorologiques.

Pour changer de carte: cliquez sur les boutons verts avec une croix noire pour zoomer, sur le bouton vert avec un tiret pour effectuer un zoom arrière, ou sur les flèches vertes pour les cartes adjacentes.


METAR-TAF: